createdAt,value
2023-04-04T00:00:40.948Z,1005.10
2023-04-04T00:01:40.297Z,1005.08
2023-04-04T00:02:40.382Z,1005.15
2023-04-04T00:03:40.375Z,1005.10
2023-04-04T00:04:40.313Z,1005.12
2023-04-04T00:05:40.671Z,1005.11
2023-04-04T00:06:40.432Z,1005.09
2023-04-04T00:07:40.235Z,1005.09
2023-04-04T00:08:40.222Z,1005.09
2023-04-04T00:09:40.190Z,1005.17
2023-04-04T00:10:40.351Z,1005.10
2023-04-04T00:11:40.277Z,1005.14
2023-04-04T00:12:40.161Z,1005.15
2023-04-04T00:13:44.241Z,1005.15
2023-04-04T00:14:40.159Z,1005.18
2023-04-04T00:15:40.443Z,1005.16
2023-04-04T00:16:40.102Z,1005.13
2023-04-04T00:17:40.136Z,1005.16
2023-04-04T00:18:40.114Z,1005.10
2023-04-04T00:19:40.075Z,1005.17
2023-04-04T00:20:40.328Z,1005.18
2023-04-04T00:21:40.070Z,1005.15
2023-04-04T00:22:40.052Z,1005.13
2023-04-04T00:23:40.067Z,1005.15
2023-04-04T00:24:40.086Z,1005.15
2023-04-04T00:25:40.025Z,1005.14
2023-04-04T00:26:40.108Z,1005.14
2023-04-04T00:27:39.972Z,1005.10
2023-04-04T00:28:40.921Z,1005.12
2023-04-04T00:29:39.955Z,1005.15
2023-04-04T00:30:40.212Z,1005.21
2023-04-04T00:31:40.087Z,1005.17
2023-04-04T00:32:40.045Z,1005.20
2023-04-04T00:33:39.887Z,1005.22
2023-04-04T00:34:39.901Z,1005.21
2023-04-04T00:35:39.964Z,1005.25
2023-04-04T00:36:39.866Z,1005.17
2023-04-04T00:37:39.840Z,1005.18
2023-04-04T00:38:39.848Z,1005.23
2023-04-04T00:39:39.817Z,1005.25
2023-04-04T00:40:40.025Z,1005.24
2023-04-04T00:41:39.941Z,1005.22
2023-04-04T00:42:39.789Z,1005.25
2023-04-04T00:43:40.011Z,1005.22
2023-04-04T00:44:39.837Z,1005.28
2023-04-04T00:45:39.838Z,1005.26
2023-04-04T00:46:39.743Z,1005.26
2023-04-04T00:47:39.807Z,1005.18
2023-04-04T00:48:39.715Z,1005.23
2023-04-04T00:49:39.707Z,1005.24
2023-04-04T00:50:39.930Z,1005.22
2023-04-04T00:51:39.696Z,1005.24
2023-04-04T00:52:39.706Z,1005.23
2023-04-04T00:53:39.829Z,1005.22
2023-04-04T00:54:39.973Z,1005.23
2023-04-04T00:55:39.754Z,1005.25
2023-04-04T00:56:39.698Z,1005.20
2023-04-04T00:57:39.763Z,1005.20
2023-04-04T00:58:39.677Z,1005.23
2023-04-04T00:59:39.677Z,1005.21
2023-04-04T01:00:39.724Z,1005.20
2023-04-04T01:01:39.569Z,1005.19
2023-04-04T01:02:39.904Z,1005.19
2023-04-04T01:03:39.763Z,1005.14
2023-04-04T01:04:39.603Z,1005.16
2023-04-04T01:05:40.421Z,1005.16
2023-04-04T01:06:39.587Z,1005.16
2023-04-04T01:07:39.692Z,1005.15
2023-04-04T01:08:39.451Z,1005.16
2023-04-04T01:09:39.473Z,1005.16
2023-04-04T01:10:39.692Z,1005.14
2023-04-04T01:11:39.410Z,1005.17
2023-04-04T01:12:39.499Z,1005.17
2023-04-04T01:13:39.517Z,1005.15
2023-04-04T01:14:39.398Z,1005.16
2023-04-04T01:15:39.702Z,1005.12
2023-04-04T01:16:39.565Z,1005.11
2023-04-04T01:17:39.390Z,1005.10
2023-04-04T01:18:39.335Z,1005.13
2023-04-04T01:19:39.427Z,1005.10
2023-04-04T01:20:41.557Z,1005.12
2023-04-04T01:21:39.300Z,1005.10
2023-04-04T01:22:39.854Z,1005.09
2023-04-04T01:23:39.467Z,1005.10
2023-04-04T01:24:39.406Z,1005.14
2023-04-04T01:25:39.290Z,1005.01
2023-04-04T01:26:39.241Z,1005.05
2023-04-04T01:27:39.477Z,1005.07
2023-04-04T01:28:39.445Z,1005.03
2023-04-04T01:29:39.393Z,1005.01
2023-04-04T01:30:39.702Z,1005.00
2023-04-04T01:31:39.167Z,1005.01
2023-04-04T01:32:39.207Z,1004.99
2023-04-04T01:33:39.147Z,1005.01
2023-04-04T01:34:39.130Z,1005.03
2023-04-04T01:35:39.210Z,1005.03
2023-04-04T01:36:39.127Z,1005.12
2023-04-04T01:37:39.112Z,1005.10
2023-04-04T01:38:39.093Z,1005.07
2023-04-04T01:39:39.062Z,1005.09
2023-04-04T01:40:39.381Z,1005.11
2023-04-04T01:41:39.058Z,1005.09
2023-04-04T01:42:39.050Z,1005.14
2023-04-04T01:43:39.030Z,1005.10
2023-04-04T01:44:39.820Z,1005.08
2023-04-04T01:45:39.015Z,1005.06
2023-04-04T01:46:38.985Z,1005.08
2023-04-04T01:47:39.019Z,1005.07
2023-04-04T01:48:38.968Z,1005.08
2023-04-04T01:49:39.442Z,1005.01
2023-04-04T01:50:39.106Z,1005.02
2023-04-04T01:51:39.019Z,1005.07
2023-04-04T01:52:38.935Z,1004.98
2023-04-04T01:53:39.479Z,1005.02
2023-04-04T01:54:38.889Z,1005.02
2023-04-04T01:55:38.921Z,1004.96
2023-04-04T01:56:38.880Z,1004.96
2023-04-04T01:57:38.859Z,1004.95
2023-04-04T01:58:38.848Z,1004.95
2023-04-04T01:59:38.815Z,1004.96
2023-04-04T02:00:39.078Z,1004.90
2023-04-04T02:01:38.960Z,1004.95
2023-04-04T02:02:38.870Z,1004.99
2023-04-04T02:03:38.945Z,1004.95
2023-04-04T02:04:38.861Z,1004.93
2023-04-04T02:05:38.878Z,1004.92
2023-04-04T02:06:38.749Z,1004.95
2023-04-04T02:07:38.729Z,1004.95
2023-04-04T02:08:38.758Z,1004.87
2023-04-04T02:09:38.692Z,1004.87
2023-04-04T02:10:39.104Z,1004.85
2023-04-04T02:11:38.673Z,1004.83
2023-04-04T02:12:38.659Z,1004.84
2023-04-04T02:13:38.761Z,1004.82
2023-04-04T02:14:38.693Z,1004.82
2023-04-04T02:15:38.859Z,1004.79
2023-04-04T02:16:38.744Z,1004.82
2023-04-04T02:17:40.222Z,1004.85
2023-04-04T02:18:38.603Z,1004.80
2023-04-04T02:19:38.596Z,1004.85
2023-04-04T02:20:38.866Z,1004.84
2023-04-04T02:21:38.657Z,1004.85
2023-04-04T02:22:38.549Z,1004.85
2023-04-04T02:23:38.519Z,1004.86
2023-04-04T02:24:39.206Z,1004.82
2023-04-04T02:25:38.608Z,1004.86
2023-04-04T02:26:38.516Z,1004.83
2023-04-04T02:27:38.590Z,1004.83
2023-04-04T02:28:38.470Z,1004.80
2023-04-04T02:29:38.459Z,1004.76
2023-04-04T02:30:38.643Z,1004.76
2023-04-04T02:31:38.681Z,1004.77
2023-04-04T02:32:38.625Z,1004.75
2023-04-04T02:33:38.442Z,1004.76
2023-04-04T02:34:38.373Z,1004.79
2023-04-04T02:35:38.516Z,1004.74
2023-04-04T02:36:38.577Z,1004.79
2023-04-04T02:37:38.497Z,1004.73
2023-04-04T02:38:38.596Z,1004.74
2023-04-04T02:39:38.711Z,1004.74
2023-04-04T02:40:38.468Z,1004.65
2023-04-04T02:41:38.429Z,1004.68
2023-04-04T02:42:38.412Z,1004.65
2023-04-04T02:43:38.289Z,1004.63
2023-04-04T02:44:38.283Z,1004.62
2023-04-04T02:45:38.249Z,1004.57
2023-04-04T02:46:38.495Z,1004.59
2023-04-04T02:47:38.453Z,1004.57
2023-04-04T02:48:38.462Z,1004.59
2023-04-04T02:49:38.237Z,1004.54
2023-04-04T02:50:39.452Z,1004.61
2023-04-04T02:51:38.371Z,1004.62
2023-04-04T02:52:38.183Z,1004.56
2023-04-04T02:53:38.282Z,1004.55
2023-04-04T02:54:38.351Z,1004.57
2023-04-04T02:55:38.146Z,1004.56
2023-04-04T02:56:38.153Z,1004.57
2023-04-04T02:57:38.128Z,1004.52
2023-04-04T02:58:38.086Z,1004.57
2023-04-04T02:59:38.072Z,1004.54
2023-04-04T03:00:38.258Z,1004.53
2023-04-04T03:01:38.198Z,1004.59
2023-04-04T03:02:38.268Z,1004.57
2023-04-04T03:03:38.287Z,1004.60
2023-04-04T03:04:38.010Z,1004.57
2023-04-04T03:05:38.093Z,1004.59
2023-04-04T03:06:38.029Z,1004.55
2023-04-04T03:07:37.966Z,1004.54
2023-04-04T03:08:37.963Z,1004.55
2023-04-04T03:09:38.242Z,1004.56
2023-04-04T03:10:38.057Z,1004.57
2023-04-04T03:11:37.993Z,1004.54
2023-04-04T03:12:38.047Z,1004.57
2023-04-04T03:13:37.898Z,1004.57
2023-04-04T03:14:37.897Z,1004.61
2023-04-04T03:15:37.988Z,1004.54
2023-04-04T03:16:38.064Z,1004.58
2023-04-04T03:17:39.446Z,1004.55
2023-04-04T03:18:37.838Z,1004.57
2023-04-04T03:19:37.836Z,1004.54
2023-04-04T03:20:38.041Z,1004.50
2023-04-04T03:21:37.991Z,1004.51
2023-04-04T03:22:37.875Z,1004.51
2023-04-04T03:23:37.847Z,1004.48
2023-04-04T03:24:38.676Z,1004.47
2023-04-04T03:25:37.848Z,1004.47
2023-04-04T03:26:37.765Z,1004.40
2023-04-04T03:27:37.819Z,1004.41
2023-04-04T03:28:37.738Z,1004.32
2023-04-04T03:29:37.867Z,1004.34
2023-04-04T03:30:37.977Z,1004.31
2023-04-04T03:31:37.851Z,1004.34
2023-04-04T03:32:37.774Z,1004.27
2023-04-04T03:33:37.816Z,1004.23
2023-04-04T03:34:37.763Z,1004.24
2023-04-04T03:35:38.275Z,1004.22
2023-04-04T03:36:37.677Z,1004.26
2023-04-04T03:37:37.606Z,1004.26
2023-04-04T03:38:37.686Z,1004.22
2023-04-04T03:39:38.439Z,1004.21
2023-04-04T03:40:38.550Z,1004.19
2023-04-04T03:41:37.622Z,1004.23
2023-04-04T03:42:38.398Z,1004.20
2023-04-04T03:43:37.720Z,1004.20
2023-04-04T03:44:37.547Z,1004.22
2023-04-04T03:45:37.574Z,1004.21
2023-04-04T03:46:37.930Z,1004.16
2023-04-04T03:47:37.502Z,1004.19
2023-04-04T03:48:38.323Z,1004.23
2023-04-04T03:49:37.468Z,1004.20
2023-04-04T03:50:37.511Z,1004.24
2023-04-04T03:51:37.551Z,1004.20
2023-04-04T03:52:38.137Z,1004.23
2023-04-04T03:53:37.527Z,1004.21
2023-04-04T03:54:38.018Z,1004.20
2023-04-04T03:55:37.474Z,1004.15
2023-04-04T03:56:37.528Z,1004.19
2023-04-04T03:57:37.403Z,1004.15
2023-04-04T03:58:37.403Z,1004.18
2023-04-04T03:59:38.017Z,1004.18
2023-04-04T04:00:37.559Z,1004.19
2023-04-04T04:01:37.595Z,1004.16
2023-04-04T04:02:37.439Z,1004.20
2023-04-04T04:03:37.355Z,1004.21
2023-04-04T04:04:37.440Z,1004.17
2023-04-04T04:05:37.913Z,1004.18
2023-04-04T04:06:37.363Z,1004.20
2023-04-04T04:07:37.367Z,1004.20
2023-04-04T04:08:37.337Z,1004.18
2023-04-04T04:09:37.379Z,1004.21
2023-04-04T04:10:37.199Z,1004.19
2023-04-04T04:11:37.391Z,1004.16
2023-04-04T04:12:37.169Z,1004.20
2023-04-04T04:13:37.276Z,1004.21
2023-04-04T04:14:37.139Z,1004.17
2023-04-04T04:15:37.262Z,1004.20
2023-04-04T04:16:37.256Z,1004.18
2023-04-04T04:17:37.223Z,1004.17
2023-04-04T04:18:37.063Z,1004.19
2023-04-04T04:19:37.096Z,1004.19
2023-04-04T04:20:37.203Z,1004.15
2023-04-04T04:21:37.175Z,1004.20
2023-04-04T04:22:37.022Z,1004.16
2023-04-04T04:23:37.070Z,1004.17
2023-04-04T04:24:37.007Z,1004.16
2023-04-04T04:25:37.202Z,1004.21
2023-04-04T04:26:37.164Z,1004.15
2023-04-04T04:27:37.170Z,1004.19
2023-04-04T04:28:37.100Z,1004.17
2023-04-04T04:29:36.933Z,1004.12
2023-04-04T04:30:37.946Z,1004.17
2023-04-04T04:31:37.789Z,1004.15
2023-04-04T04:32:37.181Z,1004.13
2023-04-04T04:33:37.026Z,1004.18
2023-04-04T04:34:37.072Z,1004.16
2023-04-04T04:35:36.838Z,1004.12
2023-04-04T04:36:36.916Z,1004.10
2023-04-04T04:37:36.959Z,1004.05
2023-04-04T04:38:36.809Z,1004.09
2023-04-04T04:39:36.889Z,1004.09
2023-04-04T04:40:36.891Z,1004.04
2023-04-04T04:41:38.215Z,1004.03
2023-04-04T04:42:36.814Z,1003.99
2023-04-04T04:43:36.734Z,1004.03
2023-04-04T04:44:36.816Z,1003.99
2023-04-04T04:45:37.453Z,1004.02
2023-04-04T04:46:36.744Z,1004.01
2023-04-04T04:47:36.840Z,1004.05
2023-04-04T04:48:36.744Z,1004.02
2023-04-04T04:49:36.692Z,1004.02
2023-04-04T04:50:36.725Z,1004.04
2023-04-04T04:51:36.723Z,1004.03
2023-04-04T04:52:36.634Z,1004.02
2023-04-04T04:53:37.306Z,1004.02
2023-04-04T04:54:36.583Z,1003.98
2023-04-04T04:55:36.580Z,1004.02
2023-04-04T04:56:37.289Z,1004.01
2023-04-04T04:57:36.557Z,1003.99
2023-04-04T04:58:36.553Z,1003.99
2023-04-04T04:59:36.557Z,1004.02
2023-04-04T05:00:36.583Z,1004.02
2023-04-04T05:01:36.746Z,1004.06
2023-04-04T05:02:36.518Z,1004.06
2023-04-04T05:03:36.514Z,1004.02
2023-04-04T05:04:36.462Z,1004.08
2023-04-04T05:05:36.448Z,1004.10
2023-04-04T05:06:36.471Z,1004.08
2023-04-04T05:07:36.451Z,1004.06
2023-04-04T05:08:36.415Z,1004.09
2023-04-04T05:09:36.416Z,1004.07
2023-04-04T05:10:36.401Z,1004.07
2023-04-04T05:11:36.492Z,1004.07
2023-04-04T05:12:37.134Z,1004.08
2023-04-04T05:13:36.805Z,1004.11
2023-04-04T05:14:36.354Z,1004.09
2023-04-04T05:15:36.325Z,1004.15
2023-04-04T05:16:36.372Z,1004.16
2023-04-04T05:17:36.345Z,1004.15
2023-04-04T05:18:36.306Z,1004.18
2023-04-04T05:19:36.365Z,1004.21
2023-04-04T05:20:36.267Z,1004.27
2023-04-04T05:21:36.288Z,1004.19
2023-04-04T05:22:36.231Z,1004.26
2023-04-04T05:23:36.240Z,1004.27
2023-04-04T05:24:36.227Z,1004.28
2023-04-04T05:25:36.210Z,1004.29
2023-04-04T05:26:36.220Z,1004.28
2023-04-04T05:27:37.138Z,1004.30
2023-04-04T05:28:36.162Z,1004.30
2023-04-04T05:29:36.164Z,1004.34
2023-04-04T05:30:36.134Z,1004.34
2023-04-04T05:31:36.206Z,1004.32
2023-04-04T05:32:36.197Z,1004.36
2023-04-04T05:33:36.115Z,1004.37
2023-04-04T05:34:36.117Z,1004.38
2023-04-04T05:35:36.151Z,1004.37
2023-04-04T05:36:36.101Z,1004.45
2023-04-04T05:37:36.073Z,1004.41
2023-04-04T05:38:36.044Z,1004.44
2023-04-04T05:39:36.037Z,1004.44
2023-04-04T05:40:36.028Z,1004.45
2023-04-04T05:41:36.045Z,1004.46
2023-04-04T05:42:35.991Z,1004.45
2023-04-04T05:43:35.990Z,1004.38
2023-04-04T05:44:35.979Z,1004.43
2023-04-04T05:45:35.966Z,1004.44
2023-04-04T05:46:36.004Z,1004.45
2023-04-04T05:47:35.954Z,1004.43
2023-04-04T05:48:35.960Z,1004.43
2023-04-04T05:49:35.903Z,1004.38
2023-04-04T05:50:35.878Z,1004.46
2023-04-04T05:51:35.928Z,1004.43
2023-04-04T05:52:35.894Z,1004.42
2023-04-04T05:53:35.868Z,1004.41
2023-04-04T05:54:35.851Z,1004.44
2023-04-04T05:55:35.840Z,1004.39
2023-04-04T05:56:35.838Z,1004.41
2023-04-04T05:57:35.846Z,1004.40
2023-04-04T05:58:35.805Z,1004.45
2023-04-04T05:59:36.163Z,1004.41
2023-04-04T06:00:35.818Z,1004.42
2023-04-04T06:01:35.801Z,1004.39
2023-04-04T06:02:35.872Z,1004.39
2023-04-04T06:03:35.833Z,1004.38
2023-04-04T06:04:35.888Z,1004.41
2023-04-04T06:05:35.849Z,1004.46
2023-04-04T06:06:35.709Z,1004.40
2023-04-04T06:07:35.706Z,1004.46
2023-04-04T06:08:46.643Z,1004.47
2023-04-04T06:09:36.657Z,1004.45
2023-04-04T06:10:35.639Z,1004.42
2023-04-04T06:11:35.643Z,1004.44
2023-04-04T06:12:35.684Z,1004.44
2023-04-04T06:13:35.949Z,1004.43
2023-04-04T06:14:35.612Z,1004.45
2023-04-04T06:15:35.586Z,1004.44
2023-04-04T06:16:35.681Z,1004.47
2023-04-04T06:17:36.011Z,1004.47
2023-04-04T06:18:35.547Z,1004.52
2023-04-04T06:19:35.538Z,1004.52
2023-04-04T06:20:35.539Z,1004.53
2023-04-04T06:21:35.515Z,1004.53
2023-04-04T06:22:35.532Z,1004.53
2023-04-04T06:23:35.490Z,1004.58
2023-04-04T06:24:37.407Z,1004.54
2023-04-04T06:25:35.465Z,1004.58
2023-04-04T06:26:35.443Z,1004.56
2023-04-04T06:27:35.471Z,1004.62
2023-04-04T06:28:35.436Z,1004.61
2023-04-04T06:29:35.772Z,1004.64
2023-04-04T06:30:35.396Z,1004.64
2023-04-04T06:31:35.465Z,1004.63
2023-04-04T06:32:35.437Z,1004.64
2023-04-04T06:33:35.399Z,1004.65
2023-04-04T06:34:35.353Z,1004.63
2023-04-04T06:35:35.342Z,1004.64
2023-04-04T06:36:35.310Z,1004.59
2023-04-04T06:37:35.386Z,1004.61
2023-04-04T06:38:35.295Z,1004.60
2023-04-04T06:39:35.284Z,1004.65
2023-04-04T06:40:35.276Z,1004.62
2023-04-04T06:41:35.259Z,1004.69
2023-04-04T06:42:35.287Z,1004.72
2023-04-04T06:43:35.227Z,1004.72
2023-04-04T06:44:35.242Z,1004.72
2023-04-04T06:45:35.200Z,1004.66
2023-04-04T06:46:35.243Z,1004.62
2023-04-04T06:47:35.284Z,1004.67
2023-04-04T06:48:35.190Z,1004.70
2023-04-04T06:49:35.187Z,1004.66
2023-04-04T06:50:35.149Z,1004.73
2023-04-04T06:51:35.127Z,1004.71
2023-04-04T06:52:35.998Z,1004.75
2023-04-04T06:53:35.091Z,1004.74
2023-04-04T06:54:35.088Z,1004.69
2023-04-04T06:55:35.080Z,1004.69
2023-04-04T06:56:35.068Z,1004.71
2023-04-04T06:57:35.105Z,1004.74
2023-04-04T06:58:35.042Z,1004.75
2023-04-04T06:59:35.038Z,1004.76
2023-04-04T07:00:35.176Z,1004.74
2023-04-04T07:01:35.015Z,1004.76
2023-04-04T07:02:35.112Z,1004.73
2023-04-04T07:03:34.980Z,1004.73
2023-04-04T07:04:35.011Z,1004.73
2023-04-04T07:05:34.954Z,1004.73
2023-04-04T07:06:34.964Z,1004.73
2023-04-04T07:07:34.964Z,1004.74
2023-04-04T07:08:37.210Z,1004.73
2023-04-04T07:09:34.919Z,1004.80
2023-04-04T07:10:34.918Z,1004.80
2023-04-04T07:11:35.211Z,1004.80
2023-04-04T07:12:35.721Z,1004.81
2023-04-04T07:13:35.151Z,1004.78
2023-04-04T07:14:34.842Z,1004.84
2023-04-04T07:15:36.159Z,1004.83
2023-04-04T07:16:34.853Z,1004.82
2023-04-04T07:17:34.846Z,1004.80
2023-04-04T07:18:34.840Z,1004.79
2023-04-04T07:19:34.772Z,1004.76
2023-04-04T07:20:34.764Z,1004.78
2023-04-04T07:21:34.865Z,1004.74
2023-04-04T07:22:34.773Z,1004.76
2023-04-04T07:23:34.856Z,1004.74
2023-04-04T07:24:34.777Z,1004.72
2023-04-04T07:25:34.695Z,1004.75
2023-04-04T07:26:34.708Z,1004.75
2023-04-04T07:27:35.364Z,1004.72
2023-04-04T07:28:34.925Z,1004.71
2023-04-04T07:29:35.591Z,1004.61
2023-04-04T07:30:34.722Z,1004.67
2023-04-04T07:31:34.734Z,1004.71
2023-04-04T07:32:34.899Z,1004.69
2023-04-04T07:33:34.588Z,1004.61
2023-04-04T07:34:34.688Z,1004.64
2023-04-04T07:35:35.183Z,1004.66
2023-04-04T07:36:34.600Z,1004.67
2023-04-04T07:37:35.341Z,1004.65
2023-04-04T07:38:34.598Z,1004.67
2023-04-04T07:39:34.536Z,1004.61
2023-04-04T07:40:34.533Z,1004.64
2023-04-04T07:41:34.514Z,1004.64
2023-04-04T07:42:34.477Z,1004.62
2023-04-04T07:43:34.642Z,1004.65
2023-04-04T07:44:34.456Z,1004.64
2023-04-04T07:45:34.566Z,1004.65
2023-04-04T07:46:35.375Z,1004.63
2023-04-04T07:47:34.453Z,1004.64
2023-04-04T07:48:34.402Z,1004.57
2023-04-04T07:49:34.705Z,1004.60
2023-04-04T07:50:34.521Z,1004.60
2023-04-04T07:51:34.352Z,1004.58
2023-04-04T07:52:34.484Z,1004.55
2023-04-04T07:53:34.352Z,1004.46
2023-04-04T07:54:34.410Z,1004.51
2023-04-04T07:55:34.311Z,1004.51
2023-04-04T07:56:34.303Z,1004.48
2023-04-04T07:57:34.322Z,1004.46
2023-04-04T07:58:34.285Z,1004.51
2023-04-04T07:59:34.314Z,1004.49
2023-04-04T08:00:34.270Z,1004.45
2023-04-04T08:01:34.238Z,1004.50
2023-04-04T08:02:34.527Z,1004.45
2023-04-04T08:03:34.362Z,1004.46
2023-04-04T08:04:34.229Z,1004.45
2023-04-04T08:05:34.385Z,1004.37
2023-04-04T08:06:34.170Z,1004.36
2023-04-04T08:07:34.188Z,1004.41
2023-04-04T08:08:34.199Z,1004.42
2023-04-04T08:09:34.130Z,1004.42
2023-04-04T08:10:34.235Z,1004.46
2023-04-04T08:11:34.100Z,1004.43
2023-04-04T08:12:34.140Z,1004.38
2023-04-04T08:13:34.079Z,1004.41
2023-04-04T08:14:34.083Z,1004.37
2023-04-04T08:15:34.053Z,1004.45
2023-04-04T08:16:34.132Z,1004.37
2023-04-04T08:17:34.203Z,1004.37
2023-04-04T08:18:34.116Z,1004.33
2023-04-04T08:19:34.034Z,1004.36
2023-04-04T08:20:34.092Z,1004.35
2023-04-04T08:21:34.051Z,1004.30
2023-04-04T08:22:34.018Z,1004.33
2023-04-04T08:23:34.065Z,1004.35
2023-04-04T08:24:38.050Z,1004.37
2023-04-04T08:25:33.922Z,1004.30
2023-04-04T08:26:33.916Z,1004.35
2023-04-04T08:27:33.958Z,1004.35
2023-04-04T08:28:33.910Z,1004.34
2023-04-04T08:29:33.874Z,1004.32
2023-04-04T08:30:33.887Z,1004.28
2023-04-04T08:31:33.849Z,1004.32
2023-04-04T08:32:33.916Z,1004.32
2023-04-04T08:33:44.516Z,1004.35
2023-04-04T08:34:34.832Z,1004.37
2023-04-04T08:35:33.827Z,1004.32
2023-04-04T08:36:33.784Z,1004.38
2023-04-04T08:37:33.814Z,1004.40
2023-04-04T08:38:33.769Z,1004.41
2023-04-04T08:39:33.777Z,1004.42
2023-04-04T08:40:34.724Z,1004.36
2023-04-04T08:41:33.723Z,1004.39
2023-04-04T08:42:33.704Z,1004.35
2023-04-04T08:43:34.003Z,1004.39
2023-04-04T08:44:34.054Z,1004.38
2023-04-04T08:45:33.666Z,1004.33
2023-04-04T08:46:33.761Z,1004.37
2023-04-04T08:47:33.726Z,1004.34
2023-04-04T08:48:33.646Z,1004.34
2023-04-04T08:49:33.610Z,1004.38
2023-04-04T08:50:33.625Z,1004.38
2023-04-04T08:51:33.608Z,1004.39
2023-04-04T08:52:33.680Z,1004.36
2023-04-04T08:53:33.688Z,1004.38
2023-04-04T08:54:33.565Z,1004.37
2023-04-04T08:55:33.536Z,1004.38
2023-04-04T08:56:33.529Z,1004.38
2023-04-04T08:57:33.551Z,1004.40
2023-04-04T08:58:33.535Z,1004.44
2023-04-04T08:59:33.539Z,1004.41
2023-04-04T09:00:33.480Z,1004.38
2023-04-04T09:01:33.504Z,1004.38
2023-04-04T09:02:33.558Z,1004.37
2023-04-04T09:03:33.477Z,1004.47
2023-04-04T09:04:33.517Z,1004.41
2023-04-04T09:05:33.413Z,1004.39
2023-04-04T09:06:33.456Z,1004.44
2023-04-04T09:07:33.394Z,1004.49
2023-04-04T09:08:33.423Z,1004.42
2023-04-04T09:09:33.395Z,1004.44
2023-04-04T09:10:33.356Z,1004.50
2023-04-04T09:11:37.428Z,1004.44
2023-04-04T09:12:33.567Z,1004.37
2023-04-04T09:13:33.372Z,1004.43
2023-04-04T09:14:34.154Z,1004.39
2023-04-04T09:15:33.331Z,1004.39
2023-04-04T09:16:33.347Z,1004.35
2023-04-04T09:17:33.347Z,1004.36
2023-04-04T09:18:33.289Z,1004.38
2023-04-04T09:19:33.495Z,1004.40
2023-04-04T09:20:33.310Z,1004.37
2023-04-04T09:21:33.207Z,1004.34
2023-04-04T09:22:33.194Z,1004.34
2023-04-04T09:23:33.222Z,1004.31
2023-04-04T09:24:33.175Z,1004.31
2023-04-04T09:25:33.219Z,1004.34
2023-04-04T09:26:33.317Z,1004.28
2023-04-04T09:27:33.126Z,1004.31
2023-04-04T09:28:33.177Z,1004.30
2023-04-04T09:29:33.188Z,1004.32
2023-04-04T09:30:33.090Z,1004.32
2023-04-04T09:31:33.086Z,1004.32
2023-04-04T09:32:33.091Z,1004.30
2023-04-04T09:33:33.220Z,1004.30
2023-04-04T09:34:33.995Z,1004.27
2023-04-04T09:35:33.037Z,1004.30
2023-04-04T09:36:33.021Z,1004.25
2023-04-04T09:37:33.257Z,1004.22
2023-04-04T09:38:34.029Z,1004.16
2023-04-04T09:39:33.078Z,1004.16
2023-04-04T09:40:33.016Z,1004.11
2023-04-04T09:41:32.984Z,1004.15
2023-04-04T09:42:32.941Z,1004.21
2023-04-04T09:43:35.460Z,1004.18
2023-04-04T09:44:32.929Z,1004.15
2023-04-04T09:45:35.529Z,1004.19
2023-04-04T09:46:33.055Z,1004.21
2023-04-04T09:47:32.895Z,1004.12
2023-04-04T09:48:33.008Z,1004.14
2023-04-04T09:49:32.837Z,1004.11
2023-04-04T09:50:32.830Z,1004.14
2023-04-04T09:51:32.959Z,1004.14
2023-04-04T09:52:32.970Z,1004.19
2023-04-04T09:53:32.874Z,1004.14
2023-04-04T09:54:33.081Z,1004.16
2023-04-04T09:55:33.163Z,1004.14
2023-04-04T09:56:33.251Z,1004.16
2023-04-04T09:57:32.791Z,1004.13
2023-04-04T09:58:32.748Z,1004.09
2023-04-04T09:59:32.788Z,1004.08
2023-04-04T10:00:32.697Z,1004.04
2023-04-04T10:01:32.711Z,1004.09
2023-04-04T10:02:32.714Z,1004.05
2023-04-04T10:03:32.708Z,1003.98
2023-04-04T10:04:32.734Z,1003.96
2023-04-04T10:05:32.661Z,1003.97
2023-04-04T10:06:32.640Z,1004.01
2023-04-04T10:07:32.717Z,1004.00
2023-04-04T10:08:32.859Z,1004.01
2023-04-04T10:09:32.660Z,1004.02
2023-04-04T10:10:32.646Z,1003.98
2023-04-04T10:11:32.575Z,1004.02
2023-04-04T10:12:32.546Z,1004.01
2023-04-04T10:13:32.706Z,1004.04
2023-04-04T10:14:32.529Z,1003.99
2023-04-04T10:15:32.504Z,1004.00
2023-04-04T10:16:32.578Z,1003.97
2023-04-04T10:17:32.528Z,1003.98
2023-04-04T10:18:32.500Z,1003.98
2023-04-04T10:19:32.456Z,1003.97
2023-04-04T10:20:32.481Z,1003.92
2023-04-04T10:21:32.527Z,1003.91
2023-04-04T10:22:36.720Z,1003.97
2023-04-04T10:23:32.452Z,1003.92
2023-04-04T10:24:32.400Z,1003.94
2023-04-04T10:25:32.407Z,1004.00
2023-04-04T10:26:32.381Z,1003.96
2023-04-04T10:27:32.348Z,1003.99
2023-04-04T10:28:32.614Z,1003.96
2023-04-04T10:29:36.338Z,1003.92
2023-04-04T10:30:32.314Z,1003.90
2023-04-04T10:31:32.342Z,1003.91
2023-04-04T10:32:32.298Z,1003.90
2023-04-04T10:33:32.305Z,1003.87
2023-04-04T10:34:32.275Z,1003.84
2023-04-04T10:35:32.240Z,1003.81
2023-04-04T10:36:32.228Z,1003.79
2023-04-04T10:37:32.377Z,1003.80
2023-04-04T10:38:32.325Z,1003.84
2023-04-04T10:39:32.184Z,1003.82
2023-04-04T10:40:32.248Z,1003.77
2023-04-04T10:41:32.245Z,1003.83
2023-04-04T10:42:32.183Z,1003.77
2023-04-04T10:43:32.169Z,1003.74
2023-04-04T10:44:32.127Z,1003.70
2023-04-04T10:45:32.217Z,1003.68
2023-04-04T10:46:32.222Z,1003.67
2023-04-04T10:47:32.207Z,1003.67
2023-04-04T10:48:32.970Z,1003.69
2023-04-04T10:49:32.061Z,1003.70
2023-04-04T10:50:32.877Z,1003.66
2023-04-04T10:51:35.299Z,1003.68
2023-04-04T10:52:33.193Z,1003.74
2023-04-04T10:53:32.740Z,1003.71
2023-04-04T10:54:31.993Z,1003.68
2023-04-04T10:55:31.988Z,1003.62
2023-04-04T10:56:31.974Z,1003.56
2023-04-04T10:57:31.952Z,1003.55
2023-04-04T10:58:31.979Z,1003.58
2023-04-04T10:59:31.938Z,1003.56
2023-04-04T11:00:32.259Z,1003.56
2023-04-04T11:01:32.061Z,1003.52
2023-04-04T11:02:31.927Z,1003.49
2023-04-04T11:03:32.070Z,1003.42
2023-04-04T11:04:31.906Z,1003.42
2023-04-04T11:05:31.920Z,1003.42
2023-04-04T11:06:31.901Z,1003.43
2023-04-04T11:07:32.678Z,1003.39
2023-04-04T11:08:31.835Z,1003.40
2023-04-04T11:09:31.894Z,1003.34
2023-04-04T11:10:31.797Z,1003.41
2023-04-04T11:11:31.950Z,1003.33
2023-04-04T11:12:31.789Z,1003.31
2023-04-04T11:13:32.562Z,1003.34
2023-04-04T11:14:31.761Z,1003.33
2023-04-04T11:15:31.726Z,1003.33
2023-04-04T11:16:31.707Z,1003.37
2023-04-04T11:17:31.751Z,1003.37
2023-04-04T11:19:31.776Z,1003.28
2023-04-04T11:20:31.661Z,1003.29
2023-04-04T11:21:31.747Z,1003.27
2023-04-04T11:22:31.629Z,1003.34
2023-04-04T11:23:31.780Z,1003.28
2023-04-04T11:24:31.617Z,1003.30
2023-04-04T11:25:31.610Z,1003.25
2023-04-04T11:26:31.578Z,1003.25
2023-04-04T11:27:35.864Z,1003.24
2023-04-04T11:28:32.728Z,1003.23
2023-04-04T11:29:32.629Z,1003.24
2023-04-04T11:30:33.027Z,1003.22
2023-04-04T11:31:31.570Z,1003.20
2023-04-04T11:32:31.551Z,1003.16
2023-04-04T11:33:31.523Z,1003.18
2023-04-04T11:34:31.531Z,1003.18
2023-04-04T11:35:31.467Z,1003.22
2023-04-04T11:36:31.447Z,1003.19
2023-04-04T11:37:31.439Z,1003.22
2023-04-04T11:38:31.437Z,1003.17
2023-04-04T11:39:31.456Z,1003.14
2023-04-04T11:40:31.398Z,1003.15
2023-04-04T11:41:31.389Z,1003.18
2023-04-04T11:42:31.546Z,1003.12
2023-04-04T11:43:31.361Z,1003.11
2023-04-04T11:44:31.366Z,1003.06
2023-04-04T11:45:31.347Z,1003.07
2023-04-04T11:46:31.360Z,1003.05
2023-04-04T11:47:31.376Z,1003.03
2023-04-04T11:48:31.305Z,1003.02
2023-04-04T11:49:31.305Z,1003.02
2023-04-04T11:50:31.275Z,1003.01
2023-04-04T11:51:31.255Z,1003.03
2023-04-04T11:52:31.237Z,1003.02
2023-04-04T11:53:35.648Z,1002.96
2023-04-04T11:54:31.236Z,1002.94
2023-04-04T11:55:31.206Z,1002.93
2023-04-04T11:56:31.179Z,1002.92
2023-04-04T11:57:31.183Z,1002.90
2023-04-04T11:58:31.170Z,1002.88
2023-04-04T11:59:31.192Z,1002.88
2023-04-04T12:00:31.134Z,1002.82
2023-04-04T12:01:31.124Z,1002.89
2023-04-04T12:02:31.152Z,1002.88
2023-04-04T12:03:31.387Z,1002.87
2023-04-04T12:04:31.210Z,1002.84
2023-04-04T12:05:31.416Z,1002.87
2023-04-04T12:06:31.209Z,1002.83